Time;durP1;ratioP1;P1;durP2;ratioP2;P2;SDS_P1;SDS_P2;PMS_P1;PMS_P2;Temp;Humidity;BMP_temperature;BMP_pressure;BME280_temperature;BME280_humidity;BME280_pressure;Samples;Min_cycle;Max_cycle;Signal;HPM_P1;HPM_P2
2023/02/09 00:02:07;;;;;;;11.27;8.38;;;1.00;99.90;;;;;;7373142;19;20022;-58
2023/02/09 00:04:33;;;;;;;13.65;9.88;;;1.00;99.90;;;;;;7367977;19;20022;-62
2023/02/09 00:07:01;;;;;;;13.65;9.63;;;1.00;99.90;;;;;;7368271;19;20022;-62
2023/02/09 00:09:27;;;;;;;13.57;8.88;;;1.00;99.90;;;;;;7370095;19;20026;-63
2023/02/09 00:14:39;;;;;;;15.65;10.45;;;1.00;99.90;;;;;;7370984;19;20027;-58
2023/02/09 00:17:07;;;;;;;12.82;9.02;;;1.00;99.90;;;;;;7371369;19;20128;-58
2023/02/09 00:19:33;;;;;;;12.48;8.70;;;0.90;99.90;;;;;;7368624;19;20044;-63
2023/02/09 00:22:00;;;;;;;12.68;9.40;;;0.90;99.90;;;;;;7371492;19;20023;-59
2023/02/09 00:24:26;;;;;;;12.45;9.27;;;0.80;99.90;;;;;;7368699;19;20022;-63
2023/02/09 00:26:52;;;;;;;15.57;10.40;;;0.80;99.90;;;;;;7368702;19;20951;-63
2023/02/09 00:29:22;;;;;;;13.82;9.98;;;0.80;99.90;;;;;;7367420;19;20039;-61
2023/02/09 00:31:50;;;;;;;17.88;10.18;;;0.80;99.90;;;;;;7370566;19;20033;-59
2023/02/09 00:34:17;;;;;;;13.35;9.63;;;0.70;99.90;;;;;;7366701;19;20441;-63
2023/02/09 00:36:43;;;;;;;13.73;10.07;;;0.70;99.90;;;;;;7366933;19;20038;-62
2023/02/09 00:39:09;;;;;;;11.55;9.63;;;0.80;99.90;;;;;;7371685;19;20624;-63
2023/02/09 00:44:21;;;;;;;14.50;10.02;;;0.60;99.90;;;;;;7365899;19;20029;-58
2023/02/09 00:46:48;;;;;;;14.27;9.48;;;0.50;99.90;;;;;;7367796;19;20023;-62
2023/02/09 00:49:15;;;;;;;14.82;10.25;;;0.50;99.90;;;;;;7369855;19;20471;-63
2023/02/09 00:51:41;;;;;;;14.45;10.63;;;0.40;99.90;;;;;;7369789;19;20025;-58
2023/02/09 00:54:07;;;;;;;14.02;10.15;;;0.40;99.90;;;;;;7372501;19;20024;-58
2023/02/09 00:56:33;;;;;;;14.07;10.88;;;0.40;99.90;;;;;;7371808;19;20051;-63
2023/02/09 00:59:00;;;;;;;14.77;9.98;;;0.30;99.90;;;;;;7366797;19;20029;-58
2023/02/09 01:01:26;;;;;;;13.93;9.63;;;0.30;99.90;;;;;;7371391;19;20029;-58
2023/02/09 01:03:52;;;;;;;15.65;10.75;;;0.20;99.90;;;;;;7370082;19;20024;-58
2023/02/09 01:06:20;;;;;;;15.90;10.82;;;0.20;99.90;;;;;;7371284;19;20041;-63
2023/02/09 01:08:46;;;;;;;13.20;10.07;;;0.20;99.90;;;;;;7376041;19;20029;-63
2023/02/09 01:11:14;;;;;;;15.35;10.68;;;0.20;99.90;;;;;;7377692;19;20026;-63
2023/02/09 01:13:42;;;;;;;14.13;9.82;;;0.20;99.90;;;;;;7381072;19;20114;-58
2023/02/09 01:16:15;;;;;;;16.85;9.90;;;0.10;99.90;;;;;;7376235;19;20659;-64
2023/02/09 01:18:42;;;;;;;17.92;10.38;;;0.10;99.90;;;;;;7375397;19;20015;-64
2023/02/09 01:21:14;;;;;;;13.80;10.05;;;0.20;99.90;;;;;;7376247;19;20719;-64
2023/02/09 01:23:40;;;;;;;12.45;9.88;;;0.10;99.90;;;;;;7374379;19;20023;-64
2023/02/09 01:26:08;;;;;;;14.43;9.77;;;0.10;99.90;;;;;;7373463;19;20014;-57
2023/02/09 01:28:35;;;;;;;13.57;10.05;;;0.00;99.90;;;;;;7372390;19;20014;-58
2023/02/09 01:31:03;;;;;;;12.48;9.82;;;0.00;99.90;;;;;;7373894;19;20035;-62
2023/02/09 01:33:30;;;;;;;13.77;9.70;;;0.00;99.90;;;;;;7374432;19;20018;-62
2023/02/09 01:36:01;;;;;;;16.52;10.40;;;0.00;99.90;;;;;;7377130;19;20018;-58
2023/02/09 01:38:27;;;;;;;14.90;10.07;;;0.00;99.90;;;;;;7373005;19;20039;-58
2023/02/09 01:40:54;;;;;;;13.23;10.30;;;-0.10;99.90;;;;;;7374112;19;20014;-63
2023/02/09 01:43:21;;;;;;;14.65;10.57;;;-0.10;99.90;;;;;;7371279;19;21799;-58
2023/02/09 01:45:55;;;;;;;17.77;10.05;;;-0.10;99.90;;;;;;7374869;19;20436;-58
2023/02/09 01:48:29;;;;;;;15.98;9.05;;;-0.20;99.90;;;;;;7371817;19;20527;-60
2023/02/09 01:50:59;;;;;;;16.00;9.68;;;-0.20;99.90;;;;;;7373817;19;20515;-58
2023/02/09 01:53:28;;;;;;;13.68;10.07;;;-0.20;99.90;;;;;;7368646;19;20018;-58
2023/02/09 01:56:06;;;;;;;13.65;9.77;;;-0.20;99.90;;;;;;7374077;19;20018;-58
2023/02/09 01:58:33;;;;;;;15.18;9.63;;;-0.20;99.90;;;;;;7369882;19;20421;-58
2023/02/09 02:01:02;;;;;;;15.30;9.88;;;-0.20;99.90;;;;;;7375592;19;20014;-57
2023/02/09 02:03:30;;;;;;;12.93;10.23;;;-0.20;99.90;;;;;;7373540;19;20720;-58
2023/02/09 02:06:17;;;;;;;13.88;9.90;;;-0.30;99.90;;;;;;7370794;19;20407;-58
2023/02/09 02:08:47;;;;;;;15.68;9.95;;;-0.30;99.90;;;;;;7373087;19;20022;-58
2023/02/09 02:11:13;;;;;;;16.13;10.45;;;-0.30;99.90;;;;;;7367362;19;20041;-63
2023/02/09 02:13:40;;;;;;;18.70;9.70;;;-0.30;99.90;;;;;;7373777;19;20031;-63
2023/02/09 02:16:34;;;;;;;12.65;8.63;;;-0.40;99.90;;;;;;7373610;19;20018;-58
2023/02/09 02:19:35;;;;;;;13.98;9.45;;;-0.40;99.90;;;;;;7371665;19;20026;-63
2023/02/09 02:22:33;;;;;;;14.60;9.55;;;-0.40;99.90;;;;;;7368029;19;20026;-59
2023/02/09 02:25:27;;;;;;;14.30;9.27;;;-0.40;99.90;;;;;;7372372;19;20022;-64
2023/02/09 02:27:57;;;;;;;13.40;9.50;;;-0.40;99.90;;;;;;7371214;19;20570;-62
2023/02/09 02:30:50;;;;;;;14.20;10.25;;;-0.50;99.90;;;;;;7369653;19;20011;-58
2023/02/09 02:33:22;;;;;;;12.88;9.45;;;-0.50;99.90;;;;;;7373917;19;20030;-58
2023/02/09 02:36:00;;;;;;;;;;;-0.50;99.90;;;;;;7375634;19;20030;-63
2023/02/09 02:38:42;;;;;;;11.65;8.90;;;-0.60;99.90;;;;;;7371662;19;19922;-63
2023/02/09 02:42:46;;;;;;;13.13;9.02;;;-0.60;99.90;;;;;;7376916;19;20021;-63
2023/02/09 02:44:17;;;;;;;14.35;8.95;;;-0.60;99.90;;;;;;7373672;19;20927;-63
2023/02/09 02:46:53;;;;;;;14.85;9.45;;;-0.60;99.90;;;;;;7370220;19;20074;-63
2023/02/09 02:49:30;;;;;;;17.25;9.52;;;-0.60;99.90;;;;;;7371280;19;20746;-63
2023/02/09 02:52:01;;;;;;;15.32;10.10;;;-0.60;99.90;;;;;;7374948;19;20018;-58
2023/02/09 02:54:33;;;;;;;12.18;8.93;;;-0.50;99.90;;;;;;7373023;19;20473;-63
2023/02/09 02:57:07;;;;;;;11.57;8.50;;;-0.50;99.90;;;;;;7376355;19;20671;-58
2023/02/09 02:59:39;;;;;;;15.35;8.98;;;-0.50;99.90;;;;;;7367268;19;20029;-58
2023/02/09 03:02:14;;;;;;;11.65;8.95;;;-0.50;99.90;;;;;;7371895;19;20045;-63
2023/02/09 03:04:41;;;;;;;13.00;8.40;;;-0.50;99.90;;;;;;7369809;19;20026;-63
2023/02/09 03:07:08;;;;;;;11.90;9.32;;;-0.50;99.90;;;;;;7375101;19;20035;-59
2023/02/09 03:09:34;;;;;;;13.20;8.30;;;-0.50;99.90;;;;;;7371018;19;20019;-58
2023/02/09 03:12:24;;;;;;;12.70;7.95;;;-0.40;99.90;;;;;;7373135;19;20057;-58
2023/02/09 03:15:21;;;;;;;16.63;10.13;;;-0.50;99.90;;;;;;7373012;19;20037;-58
2023/02/09 03:18:33;;;;;;;14.15;8.85;;;-0.50;99.90;;;;;;7368790;19;20671;-63
2023/02/09 03:21:05;;;;;;;12.25;9.10;;;-0.50;99.90;;;;;;7368151;19;20037;-63
2023/02/09 03:23:59;;;;;;;14.77;9.05;;;-0.60;99.90;;;;;;7371848;19;20136;-63
2023/02/09 03:26:37;;;;;;;14.57;8.63;;;-0.60;99.90;;;;;;7367899;19;20019;-63
2023/02/09 03:29:05;;;;;;;12.85;9.07;;;-0.70;99.90;;;;;;7368061;19;20075;-59
2023/02/09 03:31:31;;;;;;;13.68;8.52;;;-0.70;99.90;;;;;;7369857;19;20851;-58
2023/02/09 03:33:59;;;;;;;12.85;8.43;;;-0.70;99.90;;;;;;7369564;19;20018;-63
2023/02/09 03:36:32;;;;;;;13.48;8.60;;;-0.70;99.90;;;;;;7372124;19;20019;-63
2023/02/09 03:38:59;;;;;;;14.73;9.25;;;-0.70;99.90;;;;;;7368506;19;20022;-63
2023/02/09 03:41:25;;;;;;;13.57;8.52;;;-0.70;99.90;;;;;;7374545;19;20022;-63
2023/02/09 03:46:36;;;;;;;12.75;8.77;;;-0.70;99.90;;;;;;7369651;19;21104;-63
2023/02/09 03:49:02;;;;;;;14.50;8.70;;;-0.60;99.90;;;;;;7370430;19;20018;-63
2023/02/09 03:51:28;;;;;;;11.82;8.95;;;-0.60;99.90;;;;;;7370133;19;20010;-63
2023/02/09 03:53:54;;;;;;;13.57;8.00;;;-0.50;99.90;;;;;;7374379;19;20029;-63
2023/02/09 03:56:23;;;;;;;12.32;8.05;;;-0.50;99.90;;;;;;7369166;19;20011;-63
2023/02/09 03:58:50;;;;;;;11.40;7.95;;;-0.40;99.90;;;;;;7371470;19;20011;-58
2023/02/09 04:01:17;;;;;;;11.50;8.13;;;-0.50;99.90;;;;;;7368090;19;20079;-58
2023/02/09 04:03:43;;;;;;;11.57;8.35;;;-0.40;99.90;;;;;;7370867;19;20022;-63
2023/02/09 04:06:09;;;;;;;13.55;8.05;;;-0.40;99.90;;;;;;7367595;19;20019;-63
2023/02/09 04:08:36;;;;;;;13.27;8.50;;;-0.40;99.90;;;;;;7371456;19;20014;-63
2023/02/09 04:11:02;;;;;;;13.02;8.13;;;-0.40;99.90;;;;;;7369672;19;20058;-63
2023/02/09 04:13:29;;;;;;;13.43;8.05;;;-0.40;99.90;;;;;;7370986;19;20041;-63
2023/02/09 04:15:55;;;;;;;10.95;7.70;;;-0.30;99.90;;;;;;7370187;19;20015;-63
2023/02/09 04:18:22;;;;;;;11.65;7.93;;;-0.40;99.90;;;;;;7370748;19;20492;-63
2023/02/09 04:20:48;;;;;;;14.02;8.05;;;-0.40;99.90;;;;;;7371202;19;20043;-63
2023/02/09 04:23:15;;;;;;;12.57;8.25;;;-0.40;99.90;;;;;;7371435;19;20026;-63
2023/02/09 04:25:41;;;;;;;12.00;7.85;;;-0.40;99.90;;;;;;7368235;19;20023;-58
2023/02/09 04:28:08;;;;;;;14.93;8.40;;;-0.40;99.90;;;;;;7371313;19;20035;-62
2023/02/09 04:30:34;;;;;;;12.18;7.15;;;-0.40;99.90;;;;;;7370044;19;20019;-63
2023/02/09 04:33:00;;;;;;;13.27;7.85;;;-0.40;99.90;;;;;;7370519;19;20018;-63
2023/02/09 04:35:26;;;;;;;12.15;8.32;;;-0.40;99.90;;;;;;7367911;19;20030;-63
2023/02/09 04:37:52;;;;;;;12.95;8.35;;;-0.40;99.90;;;;;;7368139;19;20026;-58
2023/02/09 04:40:18;;;;;;;10.40;7.30;;;-0.40;99.90;;;;;;7372237;19;20430;-58
2023/02/09 04:42:45;;;;;;;13.00;7.60;;;-0.40;99.90;;;;;;7368376;19;20130;-63
2023/02/09 04:45:12;;;;;;;13.18;8.27;;;-0.40;99.90;;;;;;7370761;19;20022;-62
2023/02/09 04:47:38;;;;;;;13.60;8.05;;;-0.40;99.90;;;;;;7370713;19;20074;-63
2023/02/09 04:50:04;;;;;;;11.52;8.13;;;-0.50;99.90;;;;;;7370226;19;20496;-59
2023/02/09 04:52:30;;;;;;;13.90;8.68;;;-0.50;99.90;;;;;;7368075;19;21110;-63
2023/02/09 04:54:57;;;;;;;11.93;8.35;;;-0.50;99.90;;;;;;7371409;19;20040;-58
2023/02/09 05:00:08;;;;;;;11.43;8.07;;;-0.50;99.90;;;;;;7370910;19;20438;-58
2023/02/09 05:02:34;;;;;;;11.60;8.05;;;-0.50;99.90;;;;;;7370225;19;20614;-57
2023/02/09 05:05:00;;;;;;;12.07;8.27;;;-0.50;99.90;;;;;;7368458;19;20022;-58
2023/02/09 05:07:27;;;;;;;12.57;8.18;;;-0.50;99.90;;;;;;7366015;19;20025;-57
2023/02/09 05:09:53;;;;;;;12.77;8.27;;;-0.50;99.90;;;;;;7370661;19;20035;-58
2023/02/09 05:12:19;;;;;;;11.65;7.55;;;-0.50;99.90;;;;;;7365763;19;20015;-57
2023/02/09 05:14:45;;;;;;;11.88;8.73;;;-0.60;99.90;;;;;;7368750;19;20485;-58
2023/02/09 05:17:11;;;;;;;15.35;8.52;;;-0.60;99.90;;;;;;7367474;19;20782;-58
2023/02/09 05:19:38;;;;;;;13.77;8.30;;;-0.60;99.90;;;;;;7371726;19;20360;-58
2023/02/09 05:22:05;;;;;;;15.18;8.55;;;-0.60;99.90;;;;;;7369357;19;20018;-57
2023/02/09 05:24:31;;;;;;;13.82;8.73;;;-0.60;99.90;;;;;;7368456;19;21191;-62
2023/02/09 05:26:57;;;;;;;13.55;8.32;;;-0.60;99.90;;;;;;7364629;19;20011;-63
2023/02/09 05:29:24;;;;;;;13.27;7.97;;;-0.60;99.90;;;;;;7365523;19;20462;-63
2023/02/09 05:31:50;;;;;;;13.38;8.63;;;-0.60;99.90;;;;;;7368979;19;20910;-63
2023/02/09 05:34:16;;;;;;;15.05;8.60;;;-0.60;99.90;;;;;;7367556;19;20769;-59
2023/02/09 05:36:42;;;;;;;13.27;8.30;;;-0.60;99.90;;;;;;7369388;19;20046;-58
2023/02/09 05:39:08;;;;;;;10.32;7.82;;;-0.60;99.90;;;;;;7369286;19;20019;-58
2023/02/09 05:44:19;;;;;;;13.20;8.65;;;-0.60;99.90;;;;;;7369738;19;20469;-58
2023/02/09 05:46:45;;;;;;;15.23;8.95;;;-0.60;99.90;;;;;;7368535;19;20014;-60
2023/02/09 05:49:11;;;;;;;13.27;8.50;;;-0.60;99.90;;;;;;7366774;19;20664;-62
2023/02/09 05:51:40;;;;;;;13.65;9.23;;;-0.60;99.90;;;;;;7367287;19;20017;-58
2023/02/09 05:54:06;;;;;;;14.20;9.20;;;-0.60;99.90;;;;;;7371172;19;20018;-58
2023/02/09 05:56:34;;;;;;;12.40;8.13;;;-0.60;99.90;;;;;;7375018;19;20018;-62
2023/02/09 05:59:00;;;;;;;13.57;8.80;;;-0.50;99.90;;;;;;7376812;19;20376;-63
2023/02/09 06:01:26;;;;;;;13.85;8.77;;;-0.70;99.90;;;;;;7372926;19;20025;-63
2023/02/09 06:03:53;;;;;;;14.27;8.98;;;-0.60;99.90;;;;;;7375472;19;20010;-58
2023/02/09 06:06:19;;;;;;;14.95;8.68;;;-0.60;99.90;;;;;;7373661;19;20010;-58
2023/02/09 06:08:45;;;;;;;12.02;8.45;;;-0.60;99.90;;;;;;7378801;19;20023;-58
2023/02/09 06:11:15;;;;;;;13.45;9.57;;;-0.60;99.90;;;;;;7376134;19;20026;-58
2023/02/09 06:13:41;;;;;;;14.07;9.02;;;-0.70;99.90;;;;;;7375050;19;20477;-63
2023/02/09 06:16:08;;;;;;;13.43;9.15;;;-0.70;99.90;;;;;;7377835;19;20014;-63
2023/02/09 06:18:34;;;;;;;14.45;9.02;;;-0.70;99.90;;;;;;7373844;19;20053;-57
2023/02/09 06:21:01;;;;;;;12.68;9.13;;;-0.70;99.90;;;;;;7374952;19;20022;-58
2023/02/09 06:23:27;;;;;;;14.98;9.70;;;-0.70;99.90;;;;;;7375338;19;20029;-63
2023/02/09 06:25:54;;;;;;;13.07;8.95;;;-0.70;99.90;;;;;;7362677;19;20101;-63
2023/02/09 06:28:20;;;;;;;12.77;8.63;;;-0.60;99.90;;;;;;7374695;19;20051;-58
2023/02/09 06:30:50;;;;;;;12.40;9.73;;;-0.70;99.90;;;;;;7371410;19;20023;-59
2023/02/09 06:33:18;;;;;;;14.00;9.25;;;-0.60;99.90;;;;;;7370651;19;20018;-58
2023/02/09 06:35:45;;;;;;;18.95;9.48;;;-0.50;99.90;;;;;;7374634;19;20018;-60
2023/02/09 06:38:12;;;;;;;13.80;8.35;;;-0.60;99.90;;;;;;7371555;19;20041;-59
2023/02/09 06:40:38;;;;;;;15.55;9.40;;;-0.70;99.90;;;;;;7366952;19;20022;-63
2023/02/09 06:43:04;;;;;;;13.88;9.88;;;-0.70;99.90;;;;;;7373276;19;20018;-64
2023/02/09 06:45:31;;;;;;;12.40;8.52;;;-0.70;99.90;;;;;;7369217;19;20039;-64
2023/02/09 06:47:57;;;;;;;12.40;8.05;;;-0.70;99.90;;;;;;7372854;19;20023;-60
2023/02/09 06:50:25;;;;;;;13.95;9.13;;;-0.70;99.90;;;;;;7367292;19;20045;-59
2023/02/09 06:52:52;;;;;;;13.35;8.82;;;-0.70;99.90;;;;;;7373369;19;20834;-62
2023/02/09 06:55:18;;;;;;;13.98;9.70;;;-0.70;99.90;;;;;;7373960;19;20585;-62
2023/02/09 06:57:44;;;;;;;13.65;9.00;;;-0.70;99.90;;;;;;7371075;19;20862;-63
2023/02/09 07:00:12;;;;;;;13.70;9.02;;;-0.70;99.90;;;;;;7374334;19;20026;-59
2023/02/09 07:02:41;;;;;;;16.38;9.98;;;-0.70;99.90;;;;;;7370997;19;20473;-63
2023/02/09 07:05:08;;;;;;;13.75;9.43;;;-0.70;99.90;;;;;;7374510;19;20077;-59
2023/02/09 07:07:35;;;;;;;11.02;8.88;;;-0.70;99.90;;;;;;7369448;19;20018;-59
2023/02/09 07:10:02;;;;;;;11.85;9.00;;;-0.70;99.90;;;;;;7375387;19;20053;-64
2023/02/09 07:12:32;;;;;;;13.18;9.32;;;-0.70;99.90;;;;;;7370815;19;20014;-60
2023/02/09 07:15:01;;;;;;;14.52;9.07;;;-0.60;99.90;;;;;;7375848;19;20025;-63
2023/02/09 07:17:29;;;;;;;13.65;8.75;;;-0.60;99.90;;;;;;7369227;19;20053;-59
2023/02/09 07:19:56;;;;;;;13.98;9.15;;;-0.60;99.90;;;;;;7374893;19;20071;-59
2023/02/09 07:22:26;;;;;;;15.70;9.63;;;-0.60;99.90;;;;;;7371433;19;20037;-59
2023/02/09 07:24:53;;;;;;;16.08;9.35;;;-0.60;99.90;;;;;;7365083;19;20022;-58
2023/02/09 07:27:19;;;;;;;14.93;8.68;;;-0.60;99.90;;;;;;7367428;19;20018;-63
2023/02/09 07:29:45;;;;;;;12.95;9.13;;;-0.60;99.90;;;;;;7374337;19;20355;-59
2023/02/09 07:32:11;;;;;;;12.70;8.48;;;-0.60;99.90;;;;;;7366394;19;20033;-59
2023/02/09 07:34:38;;;;;;;15.00;9.88;;;-0.60;99.90;;;;;;7366858;19;20794;-63
2023/02/09 07:37:04;;;;;;;14.40;9.00;;;-0.60;99.90;;;;;;7366891;19;20026;-59
2023/02/09 07:39:31;;;;;;;12.90;8.95;;;-0.60;99.90;;;;;;7370158;19;20776;-63
2023/02/09 07:41:58;;;;;;;12.55;8.50;;;-0.50;99.90;;;;;;7366671;19;20022;-58
2023/02/09 07:44:35;;;;;;;15.20;9.30;;;-0.50;99.90;;;;;;7368940;19;20040;-58
2023/02/09 07:47:01;;;;;;;14.43;9.23;;;-0.50;99.90;;;;;;7368402;19;20023;-64
2023/02/09 07:49:28;;;;;;;11.75;9.00;;;-0.40;99.90;;;;;;7370516;19;20025;-59
2023/02/09 07:51:57;;;;;;;13.68;9.88;;;-0.40;99.90;;;;;;7369443;19;20022;-63
2023/02/09 07:54:23;;;;;;;14.20;9.52;;;-0.30;99.90;;;;;;7369282;19;20026;-59
2023/02/09 07:56:50;;;;;;;16.40;9.75;;;-0.30;99.90;;;;;;7369819;19;20010;-63
2023/02/09 07:59:16;;;;;;;13.15;8.77;;;-0.20;99.90;;;;;;7367512;19;20019;-60
2023/02/09 08:01:42;;;;;;;13.77;9.15;;;-0.10;99.90;;;;;;7366234;19;20023;-63
2023/02/09 08:04:08;;;;;;;14.52;9.75;;;-0.10;99.90;;;;;;7370043;19;20638;-63
2023/02/09 08:06:40;;;;;;;17.35;9.15;;;0.00;99.90;;;;;;7368458;19;20022;-63
2023/02/09 08:09:08;;;;;;;13.07;9.35;;;0.00;99.90;;;;;;7368396;19;20018;-59
2023/02/09 08:11:39;;;;;;;11.10;8.98;;;0.10;99.90;;;;;;7365628;19;20437;-58
2023/02/09 08:14:28;;;;;;;13.13;8.82;;;0.20;99.90;;;;;;7366620;19;20014;-58
2023/02/09 08:19:53;;;;;;;15.50;8.88;;;0.30;99.90;;;;;;7369721;19;20718;-59
2023/02/09 08:22:22;;;;;;;12.18;8.95;;;0.40;99.90;;;;;;7367639;19;20033;-63
2023/02/09 08:24:50;;;;;;;12.60;8.68;;;0.50;99.90;;;;;;7368848;19;20062;-63
2023/02/09 08:27:16;;;;;;;14.68;9.80;;;0.60;99.90;;;;;;7370730;19;20835;-63
2023/02/09 08:29:43;;;;;;;13.30;9.35;;;0.70;99.90;;;;;;7370299;19;20023;-64
2023/02/09 08:32:09;;;;;;;15.13;9.20;;;0.90;99.90;;;;;;7363031;19;20035;-59
2023/02/09 08:34:35;;;;;;;12.98;8.68;;;0.90;99.90;;;;;;7369134;19;20021;-59
2023/02/09 08:37:02;;;;;;;15.93;10.98;;;1.10;99.90;;;;;;7366017;19;20006;-62
2023/02/09 08:39:31;;;;;;;13.90;9.32;;;1.20;99.90;;;;;;7364073;19;20568;-63
2023/02/09 08:41:57;;;;;;;15.85;9.73;;;1.30;99.90;;;;;;7366970;19;20404;-59
2023/02/09 08:44:27;;;;;;;12.52;8.95;;;1.30;99.90;;;;;;7363250;19;20044;-62
2023/02/09 08:46:53;;;;;;;14.00;9.50;;;1.40;99.90;;;;;;7365854;19;20048;-58
2023/02/09 08:49:20;;;;;;;14.10;9.70;;;1.50;99.90;;;;;;7368647;19;20045;-59
2023/02/09 08:51:46;;;;;;;16.23;10.75;;;1.50;99.90;;;;;;7366381;19;20031;-58
2023/02/09 08:54:14;;;;;;;14.02;9.48;;;1.50;99.90;;;;;;7363114;19;20014;-62
2023/02/09 08:56:42;;;;;;;12.15;9.10;;;1.70;99.90;;;;;;7362492;19;20886;-58
2023/02/09 08:59:08;;;;;;;14.02;10.05;;;1.90;99.90;;;;;;7370202;19;20015;-63
2023/02/09 09:01:35;;;;;;;13.82;9.38;;;1.90;99.90;;;;;;7373073;19;20025;-62
2023/02/09 09:04:01;;;;;;;13.95;10.25;;;2.10;99.90;;;;;;7367433;19;20051;-62
2023/02/09 09:06:28;;;;;;;12.50;9.90;;;2.10;99.90;;;;;;7366035;19;20830;-59
2023/02/09 09:08:55;;;;;;;14.13;9.75;;;2.20;99.90;;;;;;7368967;19;20082;-62
2023/02/09 09:11:21;;;;;;;11.90;8.60;;;2.20;99.90;;;;;;7369168;19;20128;-63
2023/02/09 09:13:47;;;;;;;11.95;9.80;;;2.20;99.90;;;;;;7367383;19;20018;-62
2023/02/09 09:16:15;;;;;;;17.48;10.13;;;2.20;99.90;;;;;;7369699;19;20499;-59
2023/02/09 09:18:43;;;;;;;13.15;10.45;;;2.30;99.90;;;;;;7370685;19;20107;-63
2023/02/09 09:21:14;;;;;;;14.05;10.15;;;2.40;99.90;;;;;;7367605;19;20014;-62
2023/02/09 09:23:42;;;;;;;14.27;10.35;;;2.30;99.90;;;;;;7368169;19;20603;-59
2023/02/09 09:26:09;;;;;;;13.73;10.32;;;2.40;99.90;;;;;;7367988;19;20110;-59
2023/02/09 09:28:35;;;;;;;13.15;9.95;;;2.50;99.90;;;;;;7372240;19;20044;-59
2023/02/09 09:31:09;;;;;;;17.38;10.13;;;2.60;99.90;;;;;;7373839;19;20022;-61
2023/02/09 09:33:36;;;;;;;13.10;10.38;;;2.70;99.90;;;;;;7377816;19;20018;-59
2023/02/09 09:36:05;;;;;;;15.48;10.13;;;2.80;99.90;;;;;;7375870;19;20718;-62
2023/02/09 09:38:33;;;;;;;15.07;11.05;;;2.90;99.90;;;;;;7373322;19;20026;-62
2023/02/09 09:40:59;;;;;;;14.27;10.38;;;3.00;99.90;;;;;;7378136;19;20018;-62
2023/02/09 09:43:37;;;;;;;16.02;10.13;;;3.10;99.90;;;;;;7380727;19;20018;-59
2023/02/09 09:46:09;;;;;;;15.43;9.95;;;3.20;99.90;;;;;;7378648;19;20011;-59
2023/02/09 09:48:53;;;;;;;14.63;9.20;;;3.30;99.90;;;;;;7378541;19;20072;-59
2023/02/09 09:51:40;;;;;;;13.82;9.90;;;3.40;99.90;;;;;;7378977;19;20448;-59
2023/02/09 09:54:23;;;;;;;14.77;9.55;;;3.50;99.90;;;;;;7376212;19;20086;-59
2023/02/09 09:56:55;;;;;;;13.82;10.45;;;3.60;99.90;;;;;;7379045;19;20022;-59
2023/02/09 09:59:29;;;;;;;15.63;10.77;;;3.80;99.90;;;;;;7381206;19;20048;-59
2023/02/09 10:01:57;;;;;;;13.10;10.13;;;4.10;99.90;;;;;;7381029;19;20022;-62
2023/02/09 10:04:23;;;;;;;14.00;10.07;;;4.10;99.90;;;;;;7377442;19;20022;-60
2023/02/09 10:07:00;;;;;;;13.30;10.63;;;4.20;99.90;;;;;;7379228;19;20031;-59
2023/02/09 10:09:35;;;;;;;13.18;9.38;;;4.40;99.90;;;;;;7381716;19;20473;-62
2023/02/09 10:12:26;;;;;;;15.13;10.23;;;4.50;99.90;;;;;;7380969;19;20018;-62
2023/02/09 10:14:52;;;;;;;15.37;10.33;;;4.80;99.90;;;;;;7382455;19;20113;-63
2023/02/09 10:17:19;;;;;;;16.58;9.57;;;4.90;99.90;;;;;;7376485;19;20836;-63
2023/02/09 10:20:00;;;;;;;18.00;11.20;;;5.00;99.90;;;;;;7382500;19;20066;-63
2023/02/09 10:22:26;;;;;;;12.70;9.33;;;4.90;99.90;;;;;;7382362;19;20511;-63
2023/02/09 10:24:53;;;;;;;14.23;9.93;;;5.00;99.90;;;;;;7381264;19;20035;-62
2023/02/09 10:27:19;;;;;;;14.20;10.20;;;5.10;99.90;;;;;;7380447;19;20014;-60
2023/02/09 10:29:46;;;;;;;14.98;10.10;;;5.10;99.90;;;;;;7380808;19;20021;-60
2023/02/09 10:32:19;;;;;;;14.75;10.45;;;5.20;99.90;;;;;;7381696;19;20026;-60
2023/02/09 10:34:50;;;;;;;17.23;10.52;;;5.30;99.90;;;;;;7377571;19;20477;-60
2023/02/09 10:37:38;;;;;;;13.68;10.60;;;5.00;99.90;;;;;;7373835;19;20023;-60
2023/02/09 10:40:18;;;;;;;39.47;14.52;;;5.00;99.90;;;;;;7375813;19;20037;-60
2023/02/09 10:43:03;;;;;;;14.60;10.88;;;5.20;99.90;;;;;;7375039;19;20025;-62
2023/02/09 10:45:40;;;;;;;17.00;11.38;;;5.40;99.90;;;;;;7373197;19;20381;-60
2023/02/09 10:48:13;;;;;;;14.57;10.55;;;5.20;99.90;;;;;;7376367;19;20062;-62
2023/02/09 10:51:00;;;;;;;15.20;10.75;;;4.90;99.90;;;;;;7376534;19;20026;-62
2023/02/09 10:53:36;;;;;;;16.92;11.40;;;4.80;99.90;;;;;;7370576;19;20514;-60
2023/02/09 10:56:13;;;;;;;14.38;11.48;;;4.70;99.90;;;;;;7377702;19;20014;-60
2023/02/09 10:58:39;;;;;;;17.50;11.15;;;4.50;99.90;;;;;;7375597;19;20113;-62
2023/02/09 11:01:08;;;;;;;14.95;11.10;;;4.50;99.90;;;;;;7378515;19;20128;-62
2023/02/09 11:03:37;;;;;;;15.02;10.73;;;4.40;99.90;;;;;;7374897;19;20014;-63
2023/02/09 11:06:18;;;;;;;16.00;11.18;;;4.50;99.90;;;;;;7376041;19;20022;-63
2023/02/09 11:09:26;;;;;;;17.60;11.65;;;4.50;99.90;;;;;;7377089;19;20022;-63
2023/02/09 11:11:53;;;;;;;15.50;11.40;;;4.70;99.90;;;;;;7377949;19;20031;-63
2023/02/09 11:14:20;;;;;;;14.63;11.50;;;4.70;99.90;;;;;;7374461;19;20018;-62
2023/02/09 11:16:46;;;;;;;15.52;11.35;;;4.70;99.90;;;;;;7373036;19;20090;-62
2023/02/09 11:19:21;;;;;;;14.45;11.60;;;4.70;99.90;;;;;;7375547;19;20078;-63
2023/02/09 11:21:53;;;;;;;15.93;11.20;;;4.70;99.90;;;;;;7374887;19;20038;-62
2023/02/09 11:24:43;;;;;;;17.10;11.98;;;4.60;99.90;;;;;;7375955;19;20041;-62
2023/02/09 11:27:44;;;;;;;17.42;12.18;;;4.80;99.90;;;;;;7374129;19;20595;-62
2023/02/09 11:30:36;;;;;;;18.65;11.43;;;4.80;99.90;;;;;;7373905;19;20363;-60
2023/02/09 11:33:16;;;;;;;15.75;11.32;;;5.00;99.90;;;;;;7373562;19;20035;-60
2023/02/09 11:35:57;;;;;;;15.38;12.00;;;5.30;99.90;;;;;;7373946;19;20022;-60
2023/02/09 11:38:37;;;;;;;14.77;11.93;;;5.60;99.90;;;;;;7374119;19;20022;-60
2023/02/09 11:44:03;;;;;;;14.68;11.43;;;5.90;99.90;;;;;;7369397;19;20090;-60
2023/02/09 11:46:34;;;;;;;14.27;11.43;;;5.80;99.90;;;;;;7369684;19;20010;-60
2023/02/09 11:49:12;;;;;;;16.67;11.75;;;5.80;99.90;;;;;;7374972;19;20018;-60
2023/02/09 11:51:40;;;;;;;17.33;11.85;;;5.60;99.90;;;;;;7372990;19;20580;-60
2023/02/09 11:54:11;;;;;;;14.93;11.57;;;5.50;99.90;;;;;;7370180;19;20049;-60
2023/02/09 11:56:40;;;;;;;17.23;11.95;;;5.30;99.90;;;;;;7376421;19;20050;-60
2023/02/09 11:59:32;;;;;;;18.38;12.27;;;5.30;99.90;;;;;;7373918;19;20030;-62
2023/02/09 12:02:21;;;;;;;14.30;11.80;;;5.30;99.90;;;;;;7374672;19;20512;-62
2023/02/09 12:05:00;;;;;;;15.18;12.35;;;5.30;99.90;;;;;;7374089;19;20045;-62
2023/02/09 12:07:42;;;;;;;20.42;12.68;;;5.30;99.90;;;;;;7371830;19;20018;-63
2023/02/09 12:10:49;;;;;;;16.58;12.50;;;5.50;99.90;;;;;;7371785;19;20029;-62
2023/02/09 12:13:39;;;;;;;18.60;13.18;;;5.70;99.90;;;;;;7371615;19;20841;-62
2023/02/09 12:16:16;;;;;;;20.73;13.32;;;6.20;99.90;;;;;;7372667;19;20125;-62
2023/02/09 12:18:43;;;;;;;22.77;13.88;;;6.40;99.90;;;;;;7371070;19;20014;-62
2023/02/09 12:21:10;;;;;;;17.67;12.85;;;6.40;99.90;;;;;;7373380;19;20022;-62
2023/02/09 12:23:40;;;;;;;16.45;13.45;;;6.40;99.90;;;;;;7369224;19;20769;-62
2023/02/09 12:26:16;;;;;;;17.65;12.73;;;6.40;99.90;;;;;;7372646;19;20070;-62
2023/02/09 12:28:47;;;;;;;18.65;13.95;;;6.40;99.90;;;;;;7372190;19;20018;-60
2023/02/09 12:31:17;;;;;;;17.35;12.93;;;6.60;99.90;;;;;;7373220;19;20019;-60
2023/02/09 12:33:46;;;;;;;17.27;13.20;;;6.90;99.90;;;;;;7373057;19;20858;-60
2023/02/09 12:36:12;;;;;;;16.05;12.93;;;7.10;99.90;;;;;;7372340;19;20018;-60
2023/02/09 12:38:56;;;;;;;17.85;13.18;;;7.10;99.90;;;;;;7370210;19;20019;-60
2023/02/09 12:41:47;;;;;;;15.93;12.98;;;7.20;99.90;;;;;;7372393;19;20048;-60
2023/02/09 12:44:17;;;;;;;17.85;13.43;;;7.00;99.90;;;;;;7373451;19;20018;-61
2023/02/09 12:46:43;;;;;;;18.13;13.77;;;6.70;99.90;;;;;;7370019;19;20030;-60
2023/02/09 12:49:12;;;;;;;16.48;13.40;;;6.80;99.90;;;;;;7375054;19;20126;-62
2023/02/09 12:51:48;;;;;;;16.88;14.02;;;6.80;99.90;;;;;;7370993;19;20074;-62
2023/02/09 12:54:44;;;;;;;18.33;13.70;;;6.90;99.90;;;;;;7367958;19;20054;-62
2023/02/09 12:57:19;;;;;;;18.58;13.90;;;6.80;99.90;;;;;;7372688;19;20032;-62
2023/02/09 13:00:02;;;;;;;18.25;13.95;;;6.40;99.90;;;;;;7371053;19;20572;-62
2023/02/09 13:02:48;;;;;;;20.15;14.32;;;6.10;99.90;;;;;;7375974;19;20134;-59
2023/02/09 13:05:29;;;;;;;20.92;15.18;;;5.90;99.90;;;;;;7377219;19;20022;-62
2023/02/09 13:08:20;;;;;;;16.83;14.05;;;5.90;99.90;;;;;;7375529;19;20045;-62
2023/02/09 13:11:04;;;;;;;23.17;16.05;;;5.90;99.90;;;;;;7380293;19;20583;-62
2023/02/09 13:13:54;;;;;;;18.05;13.90;;;5.80;99.90;;;;;;7377596;19;20033;-60
2023/02/09 13:16:23;;;;;;;15.98;14.20;;;5.70;99.90;;;;;;7376830;19;20040;-62
2023/02/09 13:19:13;;;;;;;22.35;15.57;;;5.60;99.90;;;;;;7377017;19;21074;-60